sensor_id;sensor_type;location;lat;lon;timestamp;pressure;altitude;pressure_sealevel;temperature;humidity
83635;BME280;73596;49.482;11.238;2024-01-30T00:00:02;99492.19;;;-1.05;88.34
83635;BME280;73596;49.482;11.238;2024-01-30T00:02:29;99496.41;;;-1.02;88.82
83635;BME280;73596;49.482;11.238;2024-01-30T00:04:54;99497.25;;;-1.05;88.66
83635;BME280;73596;49.482;11.238;2024-01-30T00:07:19;99496.44;;;-1.07;88.60
83635;BME280;73596;49.482;11.238;2024-01-30T00:09:46;99504.03;;;-1.05;88.59
83635;BME280;73596;49.482;11.238;2024-01-30T00:12:12;99501.50;;;-1.07;88.80
83635;BME280;73596;49.482;11.238;2024-01-30T00:14:38;99505.75;;;-1.09;88.52
83635;BME280;73596;49.482;11.238;2024-01-30T00:17:03;99512.50;;;-1.09;88.78
83635;BME280;73596;49.482;11.238;2024-01-30T00:19:29;99515.88;;;-1.07;88.91
83635;BME280;73596;49.482;11.238;2024-01-30T00:21:54;99509.09;;;-1.07;88.28
83635;BME280;73596;49.482;11.238;2024-01-30T00:24:20;99509.09;;;-1.07;88.20
83635;BME280;73596;49.482;11.238;2024-01-30T00:26:45;99515.03;;;-1.06;88.36
83635;BME280;73596;49.482;11.238;2024-01-30T00:29:10;99505.72;;;-1.07;88.41
83635;BME280;73596;49.482;11.238;2024-01-30T00:31:35;99506.56;;;-1.10;87.75
83635;BME280;73596;49.482;11.238;2024-01-30T00:34:01;99504.03;;;-1.16;88.28
83635;BME280;73596;49.482;11.238;2024-01-30T00:36:26;99504.06;;;-1.17;88.04
83635;BME280;73596;49.482;11.238;2024-01-30T00:38:54;99504.91;;;-1.20;88.34
83635;BME280;73596;49.482;11.238;2024-01-30T00:41:20;99498.16;;;-1.25;87.66
83635;BME280;73596;49.482;11.238;2024-01-30T00:43:45;99496.47;;;-1.28;88.27
83635;BME280;73596;49.482;11.238;2024-01-30T00:46:10;99492.25;;;-1.29;87.95
83635;BME280;73596;49.482;11.238;2024-01-30T00:48:36;99493.91;;;-1.31;88.40
83635;BME280;73596;49.482;11.238;2024-01-30T00:51:01;99489.69;;;-1.31;88.34
83635;BME280;73596;49.482;11.238;2024-01-30T00:53:26;99492.22;;;-1.34;88.64
83635;BME280;73596;49.482;11.238;2024-01-30T00:55:51;99484.66;;;-1.35;88.76
83635;BME280;73596;49.482;11.238;2024-01-30T00:58:17;99488.03;;;-1.35;88.21
83635;BME280;73596;49.482;11.238;2024-01-30T01:00:44;99485.47;;;-1.33;88.66
83635;BME280;73596;49.482;11.238;2024-01-30T01:03:09;99486.31;;;-1.34;88.58
83635;BME280;73596;49.482;11.238;2024-01-30T01:05:34;99475.34;;;-1.33;89.04
83635;BME280;73596;49.482;11.238;2024-01-30T01:08:00;99481.25;;;-1.31;88.94
83635;BME280;73596;49.482;11.238;2024-01-30T01:10:25;99483.78;;;-1.33;88.93
83635;BME280;73596;49.482;11.238;2024-01-30T01:12:50;99486.34;;;-1.36;88.33
83635;BME280;73596;49.482;11.238;2024-01-30T01:15:15;99486.31;;;-1.34;88.44
83635;BME280;73596;49.482;11.238;2024-01-30T01:17:41;99477.03;;;-1.37;87.98
83635;BME280;73596;49.482;11.238;2024-01-30T01:20:07;99478.75;;;-1.37;88.00
83635;BME280;73596;49.482;11.238;2024-01-30T01:22:33;99477.03;;;-1.37;88.55
83635;BME280;73596;49.482;11.238;2024-01-30T01:24:59;99474.50;;;-1.37;88.29
83635;BME280;73596;49.482;11.238;2024-01-30T01:27:25;99475.34;;;-1.30;88.50
83635;BME280;73596;49.482;11.238;2024-01-30T01:29:50;99475.34;;;-1.27;88.48
83635;BME280;73596;49.482;11.238;2024-01-30T01:32:16;99474.50;;;-1.31;88.31
83635;BME280;73596;49.482;11.238;2024-01-30T01:34:41;99479.56;;;-1.34;88.54
83635;BME280;73596;49.482;11.238;2024-01-30T01:37:06;99474.50;;;-1.37;88.74
83635;BME280;73596;49.482;11.238;2024-01-30T01:39:32;99480.41;;;-1.41;88.01
83635;BME280;73596;49.482;11.238;2024-01-30T01:41:57;99484.63;;;-1.44;88.29
83635;BME280;73596;49.482;11.238;2024-01-30T01:44:22;99476.19;;;-1.42;88.58
83635;BME280;73596;49.482;11.238;2024-01-30T01:46:48;99469.44;;;-1.44;88.37
83635;BME280;73596;49.482;11.238;2024-01-30T01:49:13;99472.81;;;-1.39;88.84
83635;BME280;73596;49.482;11.238;2024-01-30T01:51:39;99471.13;;;-1.37;89.21
83635;BME280;73596;49.482;11.238;2024-01-30T01:54:06;99464.38;;;-1.38;88.12
83635;BME280;73596;49.482;11.238;2024-01-30T01:56:33;99466.06;;;-1.42;88.50
83635;BME280;73596;49.482;11.238;2024-01-30T01:59:06;99471.97;;;-1.46;88.39
83635;BME280;73596;49.482;11.238;2024-01-30T02:01:38;99475.38;;;-1.50;88.16
83635;BME280;73596;49.482;11.238;2024-01-30T02:04:07;99470.28;;;-1.51;88.62
83635;BME280;73596;49.482;11.238;2024-01-30T02:06:33;99471.16;;;-1.51;88.68
83635;BME280;73596;49.482;11.238;2024-01-30T02:08:59;99476.19;;;-1.49;88.45
83635;BME280;73596;49.482;11.238;2024-01-30T02:11:24;99466.94;;;-1.50;88.37
83635;BME280;73596;49.482;11.238;2024-01-30T02:13:50;99468.63;;;-1.48;88.22
83635;BME280;73596;49.482;11.238;2024-01-30T02:16:15;99462.69;;;-1.51;88.41
83635;BME280;73596;49.482;11.238;2024-01-30T02:18:42;99456.78;;;-1.53;88.22
83635;BME280;73596;49.482;11.238;2024-01-30T02:21:10;99451.72;;;-1.52;88.31
83635;BME280;73596;49.482;11.238;2024-01-30T02:23:36;99450.88;;;-1.48;88.56
83635;BME280;73596;49.482;11.238;2024-01-30T02:26:02;99439.88;;;-1.51;88.46
83635;BME280;73596;49.482;11.238;2024-01-30T02:28:28;99439.91;;;-1.42;88.93
83635;BME280;73596;49.482;11.238;2024-01-30T02:30:53;99429.75;;;-1.42;88.38
83635;BME280;73596;49.482;11.238;2024-01-30T02:33:19;99430.59;;;-1.43;88.60
83635;BME280;73596;49.482;11.238;2024-01-30T02:35:44;99429.75;;;-1.42;88.56
83635;BME280;73596;49.482;11.238;2024-01-30T02:38:09;99429.75;;;-1.42;87.71
83635;BME280;73596;49.482;11.238;2024-01-30T02:40:35;99423.00;;;-1.43;88.47
83635;BME280;73596;49.482;11.238;2024-01-30T02:43:02;99418.78;;;-1.43;87.69
83635;BME280;73596;49.482;11.238;2024-01-30T02:45:27;99412.00;;;-1.44;87.86
83635;BME280;73596;49.482;11.238;2024-01-30T02:47:52;99412.84;;;-1.43;88.37
83635;BME280;73596;49.482;11.238;2024-01-30T02:50:18;99410.31;;;-1.40;88.09
83635;BME280;73596;49.482;11.238;2024-01-30T02:52:43;99423.00;;;-1.40;87.26
83635;BME280;73596;49.482;11.238;2024-01-30T02:55:11;99423.81;;;-1.35;87.65
83635;BME280;73596;49.482;11.238;2024-01-30T02:57:38;99417.06;;;-1.36;87.54
83635;BME280;73596;49.482;11.238;2024-01-30T03:00:03;99422.16;;;-1.35;86.94
83635;BME280;73596;49.482;11.238;2024-01-30T03:02:31;99428.03;;;-1.34;87.49
83635;BME280;73596;49.482;11.238;2024-01-30T03:04:56;99417.91;;;-1.36;87.96
83635;BME280;73596;49.482;11.238;2024-01-30T03:07:21;99417.94;;;-1.40;87.65
83635;BME280;73596;49.482;11.238;2024-01-30T03:09:47;99417.09;;;-1.42;87.57
83635;BME280;73596;49.482;11.238;2024-01-30T03:12:13;99428.06;;;-1.45;88.08
83635;BME280;73596;49.482;11.238;2024-01-30T03:14:38;99429.75;;;-1.48;87.63
83635;BME280;73596;49.482;11.238;2024-01-30T03:17:03;99433.13;;;-1.49;87.66
83635;BME280;73596;49.482;11.238;2024-01-30T03:19:29;99443.28;;;-1.48;88.04
83635;BME280;73596;49.482;11.238;2024-01-30T03:21:54;99435.66;;;-1.46;88.56
83635;BME280;73596;49.482;11.238;2024-01-30T03:24:19;99429.75;;;-1.41;88.39
83635;BME280;73596;49.482;11.238;2024-01-30T03:26:44;99432.28;;;-1.35;87.59
83635;BME280;73596;49.482;11.238;2024-01-30T03:29:10;99426.34;;;-1.32;87.96
83635;BME280;73596;49.482;11.238;2024-01-30T03:31:35;99430.56;;;-1.33;87.77
83635;BME280;73596;49.482;11.238;2024-01-30T03:34:01;99428.03;;;-1.34;87.41
83635;BME280;73596;49.482;11.238;2024-01-30T03:36:26;99424.69;;;-1.35;88.37
83635;BME280;73596;49.482;11.238;2024-01-30T03:38:51;99427.22;;;-1.35;87.93
83635;BME280;73596;49.482;11.238;2024-01-30T03:41:17;99428.03;;;-1.36;87.36
83635;BME280;73596;49.482;11.238;2024-01-30T03:43:42;99428.88;;;-1.44;87.78
83635;BME280;73596;49.482;11.238;2024-01-30T03:46:07;99422.16;;;-1.50;87.92
83635;BME280;73596;49.482;11.238;2024-01-30T03:48:32;99425.56;;;-1.52;87.62
83635;BME280;73596;49.482;11.238;2024-01-30T03:50:58;99423.84;;;-1.53;88.05
83635;BME280;73596;49.482;11.238;2024-01-30T03:53:23;99413.72;;;-1.56;88.26
83635;BME280;73596;49.482;11.238;2024-01-30T03:55:48;99423.84;;;-1.56;88.23
83635;BME280;73596;49.482;11.238;2024-01-30T03:58:14;99423.88;;;-1.58;88.59
83635;BME280;73596;49.482;11.238;2024-01-30T04:00:39;99428.91;;;-1.59;87.70
83635;BME280;73596;49.482;11.238;2024-01-30T04:03:06;99430.63;;;-1.61;88.63
83635;BME280;73596;49.482;11.238;2024-01-30T04:05:31;99438.22;;;-1.60;88.10
83635;BME280;73596;49.482;11.238;2024-01-30T04:07:56;99433.13;;;-1.57;88.00
83635;BME280;73596;49.482;11.238;2024-01-30T04:10:23;99432.28;;;-1.54;88.67
83635;BME280;73596;49.482;11.238;2024-01-30T04:12:49;99434.84;;;-1.56;88.22
83635;BME280;73596;49.482;11.238;2024-01-30T04:15:14;99439.06;;;-1.56;88.26
83635;BME280;73596;49.482;11.238;2024-01-30T04:17:40;99433.97;;;-1.59;88.42
83635;BME280;73596;49.482;11.238;2024-01-30T04:20:06;99430.63;;;-1.60;88.75
83635;BME280;73596;49.482;11.238;2024-01-30T04:22:31;99437.38;;;-1.63;88.42
83635;BME280;73596;49.482;11.238;2024-01-30T04:24:57;99439.06;;;-1.67;87.89
83635;BME280;73596;49.482;11.238;2024-01-30T04:27:22;99427.25;;;-1.71;88.68
83635;BME280;73596;49.482;11.238;2024-01-30T04:29:47;99426.41;;;-1.73;88.23
83635;BME280;73596;49.482;11.238;2024-01-30T04:32:12;99428.94;;;-1.71;89.24
83635;BME280;73596;49.482;11.238;2024-01-30T04:34:38;99432.31;;;-1.71;88.92
83635;BME280;73596;49.482;11.238;2024-01-30T04:37:03;99427.28;;;-1.72;87.99
83635;BME280;73596;49.482;11.238;2024-01-30T04:39:28;99428.09;;;-1.76;88.67
83635;BME280;73596;49.482;11.238;2024-01-30T04:41:54;99427.25;;;-1.77;88.04
83635;BME280;73596;49.482;11.238;2024-01-30T04:44:19;99428.09;;;-1.81;88.17
83635;BME280;73596;49.482;11.238;2024-01-30T04:46:44;99444.16;;;-1.80;88.81
83635;BME280;73596;49.482;11.238;2024-01-30T04:49:10;99446.66;;;-1.83;89.01
83635;BME280;73596;49.482;11.238;2024-01-30T04:51:35;99444.97;;;-1.92;88.60
83635;BME280;73596;49.482;11.238;2024-01-30T04:54:00;99450.03;;;-1.84;89.00
83635;BME280;73596;49.482;11.238;2024-01-30T04:56:26;99449.22;;;-1.85;88.98
83635;BME280;73596;49.482;11.238;2024-01-30T04:58:51;99450.88;;;-1.84;89.10
83635;BME280;73596;49.482;11.238;2024-01-30T05:01:17;99462.72;;;-1.86;89.19
83635;BME280;73596;49.482;11.238;2024-01-30T05:03:42;99465.25;;;-1.86;88.97
83635;BME280;73596;49.482;11.238;2024-01-30T05:06:07;99464.38;;;-1.86;89.36
83635;BME280;73596;49.482;11.238;2024-01-30T05:08:33;99465.25;;;-1.87;89.08
83635;BME280;73596;49.482;11.238;2024-01-30T05:11:01;99459.31;;;-1.89;89.33
83635;BME280;73596;49.482;11.238;2024-01-30T05:13:28;99463.53;;;-1.87;89.49
83635;BME280;73596;49.482;11.238;2024-01-30T05:15:53;99462.69;;;-1.84;89.42
83635;BME280;73596;49.482;11.238;2024-01-30T05:18:19;99472.00;;;-1.85;89.20
83635;BME280;73596;49.482;11.238;2024-01-30T05:20:44;99466.06;;;-1.87;89.88
83635;BME280;73596;49.482;11.238;2024-01-30T05:23:09;99468.59;;;-1.87;89.73
83635;BME280;73596;49.482;11.238;2024-01-30T05:25:34;99468.59;;;-1.87;89.28
83635;BME280;73596;49.482;11.238;2024-01-30T05:28:00;99466.09;;;-1.88;89.59
83635;BME280;73596;49.482;11.238;2024-01-30T05:30:25;99472.81;;;-1.89;89.64
83635;BME280;73596;49.482;11.238;2024-01-30T05:32:50;99466.91;;;-1.89;89.18
83635;BME280;73596;49.482;11.238;2024-01-30T05:35:15;99470.31;;;-1.90;89.86
83635;BME280;73596;49.482;11.238;2024-01-30T05:37:41;99472.84;;;-1.90;89.28
83635;BME280;73596;49.482;11.238;2024-01-30T05:40:06;99473.69;;;-1.88;89.76
83635;BME280;73596;49.482;11.238;2024-01-30T05:42:33;99472.84;;;-1.90;89.26
83635;BME280;73596;49.482;11.238;2024-01-30T05:44:58;99477.06;;;-1.91;89.18
83635;BME280;73596;49.482;11.238;2024-01-30T05:47:23;99474.50;;;-1.94;89.79
83635;BME280;73596;49.482;11.238;2024-01-30T05:49:48;99478.72;;;-1.96;89.23
83635;BME280;73596;49.482;11.238;2024-01-30T05:52:14;99479.56;;;-1.97;89.63
83635;BME280;73596;49.482;11.238;2024-01-30T05:54:40;99480.41;;;-2.00;89.36
83635;BME280;73596;49.482;11.238;2024-01-30T05:57:05;99479.59;;;-2.00;89.71
83635;BME280;73596;49.482;11.238;2024-01-30T05:59:30;99488.00;;;-2.04;89.71
83635;BME280;73596;49.482;11.238;2024-01-30T06:01:56;99487.16;;;-2.05;90.28
83635;BME280;73596;49.482;11.238;2024-01-30T06:04:21;99487.16;;;-2.03;90.11
83635;BME280;73596;49.482;11.238;2024-01-30T06:06:46;99486.31;;;-2.04;90.15
83635;BME280;73596;49.482;11.238;2024-01-30T06:09:11;99483.78;;;-2.04;90.19
83635;BME280;73596;49.482;11.238;2024-01-30T06:11:38;99479.56;;;-2.05;89.96
83635;BME280;73596;49.482;11.238;2024-01-30T06:14:03;99479.56;;;-2.06;90.20
83635;BME280;73596;49.482;11.238;2024-01-30T06:16:28;99485.47;;;-2.07;90.49
83635;BME280;73596;49.482;11.238;2024-01-30T06:18:55;99488.84;;;-2.08;89.87
83635;BME280;73596;49.482;11.238;2024-01-30T06:21:20;99490.53;;;-2.09;90.65
83635;BME280;73596;49.482;11.238;2024-01-30T06:23:45;99491.38;;;-2.08;90.37
83635;BME280;73596;49.482;11.238;2024-01-30T06:26:11;99482.94;;;-2.09;89.88
83635;BME280;73596;49.482;11.238;2024-01-30T06:28:36;99487.16;;;-2.08;90.48
83635;BME280;73596;49.482;11.238;2024-01-30T06:31:01;99488.81;;;-2.10;90.74
83635;BME280;73596;49.482;11.238;2024-01-30T06:33:27;99493.06;;;-2.10;90.58
83635;BME280;73596;49.482;11.238;2024-01-30T06:35:52;99489.69;;;-2.11;90.38
83635;BME280;73596;49.482;11.238;2024-01-30T06:38:17;99488.00;;;-2.12;90.60
83635;BME280;73596;49.482;11.238;2024-01-30T06:40:42;99485.47;;;-2.12;90.24
83635;BME280;73596;49.482;11.238;2024-01-30T06:43:08;99488.00;;;-2.12;89.93
83635;BME280;73596;49.482;11.238;2024-01-30T06:45:33;99493.06;;;-2.10;90.66
83635;BME280;73596;49.482;11.238;2024-01-30T06:48:00;99490.53;;;-2.10;89.90
83635;BME280;73596;49.482;11.238;2024-01-30T06:50:25;99489.69;;;-2.11;90.32
83635;BME280;73596;49.482;11.238;2024-01-30T06:52:50;99485.47;;;-2.10;90.48
83635;BME280;73596;49.482;11.238;2024-01-30T06:55:16;99494.75;;;-2.11;90.88
83635;BME280;73596;49.482;11.238;2024-01-30T06:57:41;99497.28;;;-2.09;90.80
83635;BME280;73596;49.482;11.238;2024-01-30T07:00:07;99493.06;;;-2.10;90.97
83635;BME280;73596;49.482;11.238;2024-01-30T07:02:32;99493.91;;;-2.08;90.28
83635;BME280;73596;49.482;11.238;2024-01-30T07:04:58;99491.38;;;-2.08;91.16
83635;BME280;73596;49.482;11.238;2024-01-30T07:07:23;99497.28;;;-2.08;90.96
83635;BME280;73596;49.482;11.238;2024-01-30T07:09:48;99497.28;;;-2.09;91.47
83635;BME280;73596;49.482;11.238;2024-01-30T07:12:17;99496.41;;;-2.10;91.36
83635;BME280;73596;49.482;11.238;2024-01-30T07:14:42;99493.91;;;-2.10;90.85
83635;BME280;73596;49.482;11.238;2024-01-30T07:17:08;99494.75;;;-2.09;91.62
83635;BME280;73596;49.482;11.238;2024-01-30T07:19:33;99494.75;;;-2.08;90.92
83635;BME280;73596;49.482;11.238;2024-01-30T07:21:59;99495.59;;;-2.07;91.30
83635;BME280;73596;49.482;11.238;2024-01-30T07:24:24;99488.00;;;-2.13;91.80
83635;BME280;73596;49.482;11.238;2024-01-30T07:26:50;99505.75;;;-2.03;91.73
83635;BME280;73596;49.482;11.238;2024-01-30T07:29:15;99509.09;;;-2.02;91.12
83635;BME280;73596;49.482;11.238;2024-01-30T07:31:40;99511.63;;;-2.02;91.24
83635;BME280;73596;49.482;11.238;2024-01-30T07:34:05;99509.97;;;-2.00;91.54
83635;BME280;73596;49.482;11.238;2024-01-30T07:36:30;99520.91;;;-2.00;91.47
83635;BME280;73596;49.482;11.238;2024-01-30T07:38:56;99509.09;;;-1.99;91.78
83635;BME280;73596;49.482;11.238;2024-01-30T07:41:21;99508.25;;;-1.97;91.32
83635;BME280;73596;49.482;11.238;2024-01-30T07:43:46;99504.03;;;-1.95;92.10
83635;BME280;73596;49.482;11.238;2024-01-30T07:46:11;99509.13;;;-1.93;91.36
83635;BME280;73596;49.482;11.238;2024-01-30T07:48:37;99508.25;;;-1.92;91.60
83635;BME280;73596;49.482;11.238;2024-01-30T07:51:02;99515.88;;;-1.84;92.28
83635;BME280;73596;49.482;11.238;2024-01-30T07:53:29;99515.88;;;-1.84;91.74
83635;BME280;73596;49.482;11.238;2024-01-30T07:55:54;99521.81;;;-1.78;92.05
83635;BME280;73596;49.482;11.238;2024-01-30T07:58:19;99510.81;;;-1.71;92.45
83635;BME280;73596;49.482;11.238;2024-01-30T08:00:45;99524.34;;;-1.67;91.83
83635;BME280;73596;49.482;11.238;2024-01-30T08:03:10;99523.50;;;-1.59;91.94
83635;BME280;73596;49.482;11.238;2024-01-30T08:05:35;99522.66;;;-1.56;91.81
83635;BME280;73596;49.482;11.238;2024-01-30T08:08:00;99522.66;;;-1.56;91.43
83635;BME280;73596;49.482;11.238;2024-01-30T08:10:26;99528.56;;;-1.53;91.50
83635;BME280;73596;49.482;11.238;2024-01-30T08:12:51;99519.28;;;-1.51;92.09
83635;BME280;73596;49.482;11.238;2024-01-30T08:15:16;99528.56;;;-1.51;91.62
83635;BME280;73596;49.482;11.238;2024-01-30T08:17:42;99531.94;;;-1.49;91.69
83635;BME280;73596;49.482;11.238;2024-01-30T08:20:07;99534.47;;;-1.39;92.48
83635;BME280;73596;49.482;11.238;2024-01-30T08:22:38;99527.72;;;-1.50;90.81
83635;BME280;73596;49.482;11.238;2024-01-30T08:25:04;99532.78;;;-1.43;91.20
83635;BME280;73596;49.482;11.238;2024-01-30T08:27:30;99529.41;;;-1.46;91.42
83635;BME280;73596;49.482;11.238;2024-01-30T08:29:55;99525.19;;;-1.44;91.44
83635;BME280;73596;49.482;11.238;2024-01-30T08:32:20;99523.50;;;-1.35;91.45
83635;BME280;73596;49.482;11.238;2024-01-30T08:34:45;99526.88;;;-1.36;91.98
83635;BME280;73596;49.482;11.238;2024-01-30T08:37:11;99523.47;;;-1.29;92.07
83635;BME280;73596;49.482;11.238;2024-01-30T08:39:37;99526.03;;;-1.19;91.98
83635;BME280;73596;49.482;11.238;2024-01-30T08:42:02;99517.56;;;-1.18;91.69
83635;BME280;73596;49.482;11.238;2024-01-30T08:44:28;99528.53;;;-1.10;92.19
83635;BME280;73596;49.482;11.238;2024-01-30T08:46:53;99526.84;;;-1.02;92.54
83635;BME280;73596;49.482;11.238;2024-01-30T08:49:20;99528.50;;;-0.92;92.63
83635;BME280;73596;49.482;11.238;2024-01-30T08:51:45;99529.31;;;-0.83;92.03
83635;BME280;73596;49.482;11.238;2024-01-30T08:54:11;99524.25;;;-0.81;92.19
83635;BME280;73596;49.482;11.238;2024-01-30T08:56:36;99521.72;;;-0.74;92.22
83635;BME280;73596;49.482;11.238;2024-01-30T08:59:01;99523.34;;;-0.68;91.80
83635;BME280;73596;49.482;11.238;2024-01-30T09:01:26;99522.50;;;-0.61;91.68
83635;BME280;73596;49.482;11.238;2024-01-30T09:03:52;99512.31;;;-0.46;93.27
83635;BME280;73596;49.482;11.238;2024-01-30T09:06:18;99518.19;;;-0.36;93.48
83635;BME280;73596;49.482;11.238;2024-01-30T09:08:43;99524.00;;;-0.19;93.77
83635;BME280;73596;49.482;11.238;2024-01-30T09:11:09;99520.59;;;-0.15;92.17
83635;BME280;73596;49.482;11.238;2024-01-30T09:13:35;99526.50;;;-0.15;90.87
83635;BME280;73596;49.482;11.238;2024-01-30T09:16:00;99526.50;;;-0.15;90.59
83635;BME280;73596;49.482;11.238;2024-01-30T09:18:26;99532.47;;;-0.19;90.88
83635;BME280;73596;49.482;11.238;2024-01-30T09:20:51;99528.22;;;-0.14;90.57
83635;BME280;73596;49.482;11.238;2024-01-30T09:23:16;99528.22;;;-0.11;91.12
83635;BME280;73596;49.482;11.238;2024-01-30T09:25:43;99532.41;;;-0.10;90.42
83635;BME280;73596;49.482;11.238;2024-01-30T09:28:09;99523.94;;;-0.07;90.50
83635;BME280;73596;49.482;11.238;2024-01-30T09:30:34;99523.03;;;0.05;91.11
83635;BME280;73596;49.482;11.238;2024-01-30T09:32:59;99523.78;;;0.16;90.96
83635;BME280;73596;49.482;11.238;2024-01-30T09:35:24;99528.03;;;0.20;90.41
83635;BME280;73596;49.482;11.238;2024-01-30T09:37:50;99521.19;;;0.23;90.75
83635;BME280;73596;49.482;11.238;2024-01-30T09:40:16;99518.66;;;0.26;90.02
83635;BME280;73596;49.482;11.238;2024-01-30T09:42:46;99521.13;;;0.34;90.32
83635;BME280;73596;49.482;11.238;2024-01-30T09:45:13;99516.84;;;0.42;90.41
83635;BME280;73596;49.482;11.238;2024-01-30T09:47:43;99522.69;;;0.53;90.17
83635;BME280;73596;49.482;11.238;2024-01-30T09:50:10;99519.22;;;0.63;90.35
83635;BME280;73596;49.482;11.238;2024-01-30T09:52:35;99508.13;;;0.69;89.64
83635;BME280;73596;49.482;11.238;2024-01-30T09:55:01;99519.88;;;0.85;90.49
83635;BME280;73596;49.482;11.238;2024-01-30T09:57:26;99515.56;;;0.90;89.58
83635;BME280;73596;49.482;11.238;2024-01-30T09:59:52;99513.94;;;0.81;87.29
83635;BME280;73596;49.482;11.238;2024-01-30T10:02:19;99517.38;;;0.77;87.56
83635;BME280;73596;49.482;11.238;2024-01-30T10:04:44;99514.78;;;0.85;87.93
83635;BME280;73596;49.482;11.238;2024-01-30T10:07:10;99518.25;;;0.75;86.70
83635;BME280;73596;49.482;11.238;2024-01-30T10:09:37;99513.28;;;0.66;86.86
83635;BME280;73596;49.482;11.238;2024-01-30T10:12:03;99513.25;;;0.64;87.55
83635;BME280;73596;49.482;11.238;2024-01-30T10:14:29;99519.22;;;0.63;87.48
83635;BME280;73596;49.482;11.238;2024-01-30T10:16:55;99515.75;;;0.69;88.41
83635;BME280;73596;49.482;11.238;2024-01-30T10:19:20;99508.97;;;0.69;87.36
83635;BME280;73596;49.482;11.238;2024-01-30T10:21:46;99510.69;;;0.67;87.82
83635;BME280;73596;49.482;11.238;2024-01-30T10:24:11;99511.41;;;0.81;88.64
83635;BME280;73596;49.482;11.238;2024-01-30T10:26:38;99507.13;;;0.88;88.08
83635;BME280;73596;49.482;11.238;2024-01-30T10:29:04;99507.94;;;0.90;87.56
83635;BME280;73596;49.482;11.238;2024-01-30T10:31:29;99493.59;;;0.86;87.26
83635;BME280;73596;49.482;11.238;2024-01-30T10:33:55;99505.38;;;0.91;87.75
83635;BME280;73596;49.482;11.238;2024-01-30T10:36:22;99506.25;;;0.90;88.33
83635;BME280;73596;49.482;11.238;2024-01-30T10:38:54;99507.13;;;0.88;87.81
83635;BME280;73596;49.482;11.238;2024-01-30T10:41:24;99502.91;;;0.84;87.21
83635;BME280;73596;49.482;11.238;2024-01-30T10:44:01;99497.00;;;0.83;87.72
83635;BME280;73596;49.482;11.238;2024-01-30T10:46:30;99507.03;;;0.94;89.27
83635;BME280;73596;49.482;11.238;2024-01-30T10:48:58;99502.81;;;0.96;88.49
83635;BME280;73596;49.482;11.238;2024-01-30T10:51:27;99504.31;;;1.12;89.44
83635;BME280;73596;49.482;11.238;2024-01-30T10:53:53;99501.88;;;1.76;87.69
83635;BME280;73596;49.482;11.238;2024-01-30T10:56:21;99497.84;;;2.18;85.97
83635;BME280;73596;49.482;11.238;2024-01-30T10:58:47;99493.91;;;2.53;84.53
83635;BME280;73596;49.482;11.238;2024-01-30T11:01:13;99495.94;;;2.84;83.41
83635;BME280;73596;49.482;11.238;2024-01-30T11:03:40;99490.31;;;3.12;81.37
83635;BME280;73596;49.482;11.238;2024-01-30T11:06:10;99490.13;;;3.23;81.30
83635;BME280;73596;49.482;11.238;2024-01-30T11:08:36;99494.19;;;3.32;80.77
83635;BME280;73596;49.482;11.238;2024-01-30T11:11:01;99489.97;;;3.29;80.17
83635;BME280;73596;49.482;11.238;2024-01-30T11:13:30;99485.34;;;3.05;79.50
83635;BME280;73596;49.482;11.238;2024-01-30T11:15:55;99487.59;;;2.74;81.07
83635;BME280;73596;49.482;11.238;2024-01-30T11:18:29;99483.75;;;2.50;82.55
83635;BME280;73596;49.482;11.238;2024-01-30T11:20:59;99482.63;;;2.68;84.44
83635;BME280;73596;49.482;11.238;2024-01-30T11:23:26;99484.03;;;2.84;84.92
83635;BME280;73596;49.482;11.238;2024-01-30T11:25:52;99484.50;;;3.04;83.46
83635;BME280;73596;49.482;11.238;2024-01-30T11:28:18;99477.44;;;3.18;83.09
83635;BME280;73596;49.482;11.238;2024-01-30T11:30:44;99480.47;;;3.37;82.13
83635;BME280;73596;49.482;11.238;2024-01-30T11:33:11;99474.34;;;3.44;82.15
83635;BME280;73596;49.482;11.238;2024-01-30T11:35:41;99482.91;;;3.43;82.61
83635;BME280;73596;49.482;11.238;2024-01-30T11:38:15;99470.22;;;3.39;83.05
83635;BME280;73596;49.482;11.238;2024-01-30T11:40:41;99469.28;;;3.43;82.63
83635;BME280;73596;49.482;11.238;2024-01-30T11:43:08;99464.59;;;3.63;80.93
83635;BME280;73596;49.482;11.238;2024-01-30T11:45:34;99467.69;;;3.78;80.53
83635;BME280;73596;49.482;11.238;2024-01-30T11:48:00;99456.22;;;3.96;79.67
83635;BME280;73596;49.482;11.238;2024-01-30T11:50:26;99449.41;;;4.30;78.87
83635;BME280;73596;49.482;11.238;2024-01-30T11:52:54;99454.16;;;4.45;77.79
83635;BME280;73596;49.482;11.238;2024-01-30T11:55:19;99446.16;;;4.59;76.84
83635;BME280;73596;49.482;11.238;2024-01-30T11:57:44;99444.06;;;4.73;76.49
83635;BME280;73596;49.482;11.238;2024-01-30T12:00:17;99438.75;;;4.81;76.65
83635;BME280;73596;49.482;11.238;2024-01-30T12:02:44;99442.16;;;4.81;76.46
83635;BME280;73596;49.482;11.238;2024-01-30T12:05:09;99440.38;;;4.83;76.32
83635;BME280;73596;49.482;11.238;2024-01-30T12:07:35;99437.63;;;4.91;76.02
83635;BME280;73596;49.482;11.238;2024-01-30T12:10:01;99425.53;;;4.96;75.72
83635;BME280;73596;49.482;11.238;2024-01-30T12:12:28;99430.84;;;4.90;76.87
83635;BME280;73596;49.482;11.238;2024-01-30T12:14:55;99428.88;;;4.67;77.64
83635;BME280;73596;49.482;11.238;2024-01-30T12:17:31;99425.16;;;4.79;78.67
83635;BME280;73596;49.482;11.238;2024-01-30T12:20:03;99418.84;;;4.92;76.99
83635;BME280;73596;49.482;11.238;2024-01-30T12:22:29;99420.69;;;4.87;76.75
83635;BME280;73596;49.482;11.238;2024-01-30T12:24:54;99422.28;;;4.91;76.49
83635;BME280;73596;49.482;11.238;2024-01-30T12:27:20;99419.50;;;4.98;76.33
83635;BME280;73596;49.482;11.238;2024-01-30T12:29:45;99403.13;;;5.04;76.22
83635;BME280;73596;49.482;11.238;2024-01-30T12:32:15;99404.97;;;5.00;74.72
83635;BME280;73596;49.482;11.238;2024-01-30T12:34:41;99404.53;;;4.85;76.79
83635;BME280;73596;49.482;11.238;2024-01-30T12:37:06;99404.16;;;4.68;78.04
83635;BME280;73596;49.482;11.238;2024-01-30T12:39:34;99401.56;;;4.35;77.30
83635;BME280;73596;49.482;11.238;2024-01-30T12:42:00;99401.22;;;4.49;79.62
83635;BME280;73596;49.482;11.238;2024-01-30T12:44:25;99393.19;;;4.63;78.64